Impacts METAR Board INFO
IDs:

KSTL - St Louis/Lambert Int, MO, US

Updated at: 0910 UTC 20 Jan 2018
Potential Impact None Slight Moderate High
Time19/21Z 19/22Z 19/23Z 20/00Z 20/01Z 20/02Z 20/03Z 20/04Z 20/05Z 20/06Z 20/07Z 20/08Z 20/09Z
VIS10 10 10 10 10 10 10 10 10 10 10 10 10
CIG250 250 250 250 250 250 250 -- 250 250 250 -- --
CoverBKNBKNBKNBKNOVCOVCBKNSCTBKNBKNBKNSCTSCT
FltCatVFRVFRVFRVFRVFRVFRVFRVFRVFRVFRVFRVFRVFR
WX--------------------------
WDir220220200190190200170180180170210210200
WSpd14 12 9 10 8 11 8 5 4 4 6 4 6
WGst-- -- -- -- -- 19 -- -- -- -- -- -- --
Raw hourly METARs
KSTL 192051Z 22014KT 10SM BKN250 14/M07 A2992 RMK AO2 SLP137 T01391067 56033
KSTL 192151Z 22012KT 10SM BKN250 13/M06 A2991 RMK AO2 SLP134 T01331061
KSTL 192251Z 20009KT 10SM BKN250 12/M06 A2991 RMK AO2 SLP136 T01171056
KSTL 192351Z 19010KT 10SM BKN250 11/M05 A2992 RMK AO2 SLP138 T01061050 10139 20094 55001
KSTL 200051Z 19008KT 10SM OVC250 10/M05 A2992 RMK AO2 SLP140 T01001050
KSTL 200151Z 20011G19KT 10SM OVC250 09/M04 A2992 RMK AO2 SLP137 T00891044
KSTL 200251Z 17008KT 10SM BKN250 06/M04 A2992 RMK AO2 SLP139 T00611044 53001
KSTL 200351Z 18005KT 10SM SCT250 06/M04 A2993 RMK AO2 SLP139 T00561039
KSTL 200451Z 18004KT 10SM BKN250 05/M03 A2994 RMK AO2 SLP142 T00501033
KSTL 200551Z 17004KT 10SM BKN250 03/M03 A2994 RMK AO2 SLP143 T00331028 10106 20033 401391039 53006
KSTL 200651Z 21006KT 10SM BKN250 03/M02 A2996 RMK AO2 SLP147 T00331022
KSTL 200751Z 21004KT 10SM SCT250 03/M02 A2997 RMK AO2 SLP151 T00331022
KSTL 200851Z 20006KT 10SM SCT250 03/M02 A2998 RMK AO2 SLP155 T00281022 51014